createdAt,value
2023-02-18T00:01:49.056Z,-16.56
2023-02-18T00:04:56.737Z,-16.52
2023-02-18T00:08:00.615Z,-16.46
2023-02-18T00:11:07.562Z,-16.40
2023-02-18T00:14:14.458Z,-16.20
2023-02-18T00:17:22.417Z,-16.03
2023-02-18T00:20:25.388Z,-15.86
2023-02-18T00:23:28.740Z,-15.71
2023-02-18T00:26:31.758Z,-15.65
2023-02-18T00:29:35.197Z,-15.58
2023-02-18T00:32:41.624Z,-15.43
2023-02-18T00:35:45.330Z,-15.33
2023-02-18T00:39:02.386Z,-15.31
2023-02-18T00:42:06.311Z,-15.12
2023-02-18T00:45:10.369Z,-14.91
2023-02-18T00:48:13.756Z,-14.93
2023-02-18T00:51:19.052Z,-14.74
2023-02-18T00:54:24.391Z,-14.47
2023-02-18T00:57:28.151Z,-14.19
2023-02-18T01:00:32.369Z,-13.86
2023-02-18T01:03:44.563Z,-13.65
2023-02-18T01:06:47.470Z,-13.57
2023-02-18T01:09:50.535Z,-13.37
2023-02-18T01:12:53.660Z,-13.37
2023-02-18T01:15:57.103Z,-13.09
2023-02-18T01:19:02.806Z,-12.78
2023-02-18T01:22:07.687Z,-12.42
2023-02-18T01:25:11.730Z,-12.19
2023-02-18T01:28:17.261Z,-11.98
2023-02-18T01:31:21.000Z,-11.94
2023-02-18T01:34:24.415Z,-11.73
2023-02-18T01:37:27.705Z,-11.47
2023-02-18T01:40:31.933Z,-11.33
2023-02-18T01:43:36.591Z,-11.32
2023-02-18T01:46:40.733Z,-11.40
2023-02-18T01:49:47.594Z,-11.80
2023-02-18T01:52:51.672Z,-11.59
2023-02-18T01:55:55.734Z,-11.64
2023-02-18T01:59:04.852Z,-11.56
2023-02-18T02:02:12.784Z,-11.35
2023-02-18T02:05:18.073Z,-11.31
2023-02-18T02:08:21.120Z,-11.33
2023-02-18T02:11:29.436Z,-11.28
2023-02-18T02:15:08.677Z,-11.05
2023-02-18T02:18:34.128Z,-10.73
2023-02-18T02:22:14.156Z,-10.32
2023-02-18T02:25:24.343Z,-10.19
2023-02-18T02:29:21.262Z,-10.01
2023-02-18T02:32:47.991Z,-9.54
2023-02-18T02:36:14.245Z,-9.26
2023-02-18T02:39:42.798Z,-9.23
2023-02-18T02:42:52.587Z,-9.31
2023-02-18T02:46:15.474Z,-9.36
2023-02-18T02:49:54.773Z,-9.52
2023-02-18T02:53:08.384Z,-9.21
2023-02-18T02:56:21.493Z,-8.79
2023-02-18T02:59:28.162Z,-8.81
2023-02-18T03:03:00.667Z,-8.97
2023-02-18T03:06:37.869Z,-9.12
2023-02-18T03:10:11.197Z,-9.35
2023-02-18T03:13:47.972Z,-9.25
2023-02-18T03:17:22.045Z,-9.18
2023-02-18T03:20:40.339Z,-9.19
2023-02-18T03:23:54.311Z,-9.23
2023-02-18T03:27:04.342Z,-9.39
2023-02-18T03:30:20.736Z,-9.49
2023-02-18T03:33:33.200Z,-9.43
2023-02-18T03:36:37.396Z,-9.47
2023-02-18T03:39:46.864Z,-9.56
2023-02-18T03:42:51.188Z,-9.36
2023-02-18T03:45:55.411Z,-9.26
2023-02-18T03:49:00.199Z,-9.28
2023-02-18T03:52:09.481Z,-9.33
2023-02-18T03:55:14.740Z,-9.23
2023-02-18T03:58:18.748Z,-9.26
2023-02-18T04:01:22.550Z,-9.26
2023-02-18T04:04:27.518Z,-8.97
2023-02-18T04:07:31.348Z,-8.70
2023-02-18T04:10:35.209Z,-8.57
2023-02-18T04:13:39.376Z,-8.46
2023-02-18T04:16:43.846Z,-8.39
2023-02-18T04:19:47.769Z,-8.15
2023-02-18T04:22:51.525Z,-8.05
2023-02-18T04:25:54.934Z,-8.04
2023-02-18T04:28:58.989Z,-8.01
2023-02-18T04:32:02.689Z,-7.91
2023-02-18T04:35:07.148Z,-7.81
2023-02-18T04:38:12.388Z,-7.79
2023-02-18T04:41:15.796Z,-7.74
2023-02-18T04:44:19.459Z,-7.94
2023-02-18T04:47:22.866Z,-7.79
2023-02-18T04:50:27.261Z,-7.80
2023-02-18T04:53:30.959Z,-7.98
2023-02-18T04:56:35.034Z,-7.86
2023-02-18T04:59:39.162Z,-7.66
2023-02-18T05:02:42.909Z,-7.46
2023-02-18T05:05:47.278Z,-7.04
2023-02-18T05:08:51.616Z,-6.83
2023-02-18T05:11:55.498Z,-6.56
2023-02-18T05:14:59.252Z,-6.62
2023-02-18T05:18:04.821Z,-6.39
2023-02-18T05:21:12.021Z,-6.52
2023-02-18T05:24:15.434Z,-6.39
2023-02-18T05:27:19.830Z,-6.12
2023-02-18T05:30:23.251Z,-6.30
2023-02-18T05:33:27.403Z,-6.32
2023-02-18T05:36:30.490Z,-6.15
2023-02-18T05:39:33.807Z,-5.93
2023-02-18T05:42:37.481Z,-5.74
2023-02-18T05:45:41.554Z,-5.84
2023-02-18T05:48:45.212Z,-5.69
2023-02-18T05:51:49.368Z,-5.39
2023-02-18T05:54:53.184Z,-5.66
2023-02-18T05:57:56.957Z,-5.59
2023-02-18T06:01:00.706Z,-5.83
2023-02-18T06:04:04.730Z,-6.17
2023-02-18T06:07:08.839Z,-6.15
2023-02-18T06:10:20.039Z,-6.15
2023-02-18T06:13:25.809Z,-6.64
2023-02-18T06:16:29.640Z,-6.38
2023-02-18T06:19:33.314Z,-6.32
2023-02-18T06:22:36.359Z,-6.21
2023-02-18T06:25:40.192Z,-6.30
2023-02-18T06:28:44.112Z,-6.38
2023-02-18T06:31:47.207Z,-6.52
2023-02-18T06:34:50.244Z,-6.56
2023-02-18T06:37:53.933Z,-6.72
2023-02-18T06:40:57.663Z,-6.81
2023-02-18T06:44:01.517Z,-6.76
2023-02-18T06:47:05.282Z,-6.83
2023-02-18T06:50:09.692Z,-7.00
2023-02-18T06:53:13.811Z,-7.21
2023-02-18T06:56:17.633Z,-7.14
2023-02-18T06:59:21.694Z,-6.93
2023-02-18T07:02:24.757Z,-6.88
2023-02-18T07:05:28.888Z,-6.79
2023-02-18T07:08:36.399Z,-6.63
2023-02-18T07:11:39.347Z,-6.38
2023-02-18T07:14:45.249Z,-6.25
2023-02-18T07:18:03.688Z,-6.04
2023-02-18T07:21:07.267Z,-5.69
2023-02-18T07:24:10.955Z,-5.90
2023-02-18T07:27:13.863Z,-6.63
2023-02-18T07:30:18.852Z,-6.97
2023-02-18T07:33:21.835Z,-7.29
2023-02-18T07:36:25.464Z,-7.29
2023-02-18T07:39:29.266Z,-7.44
2023-02-18T07:42:33.141Z,-7.38
2023-02-18T07:45:39.970Z,-7.47
2023-02-18T07:48:43.683Z,-7.56
2023-02-18T07:51:49.462Z,-7.66
2023-02-18T07:54:53.204Z,-7.70
2023-02-18T07:58:01.470Z,-7.67
2023-02-18T08:01:10.185Z,-7.61
2023-02-18T08:04:14.308Z,-7.61
2023-02-18T08:07:20.047Z,-7.70
2023-02-18T08:10:23.204Z,-7.84
2023-02-18T08:13:26.406Z,-7.91
2023-02-18T08:16:30.223Z,-8.08
2023-02-18T08:19:33.952Z,-8.11
2023-02-18T08:22:38.514Z,-8.15
2023-02-18T08:25:45.645Z,-8.24
2023-02-18T09:09:22.326Z,-9.66
2023-02-18T09:12:25.381Z,-9.52
2023-02-18T09:15:28.514Z,-9.39
2023-02-18T09:18:33.240Z,-9.23
2023-02-18T09:21:36.140Z,-9.18
2023-02-18T09:24:40.693Z,-9.19
2023-02-18T09:27:45.571Z,-9.21
2023-02-18T09:30:49.003Z,-9.22
2023-02-18T09:33:55.527Z,-9.28
2023-02-18T09:36:58.602Z,-9.23
2023-02-18T09:40:02.635Z,-9.28
2023-02-18T09:43:07.638Z,-9.31
2023-02-18T09:46:26.342Z,-9.35
2023-02-18T09:49:37.110Z,-9.35
2023-02-18T09:52:42.325Z,-9.39
2023-02-18T09:55:50.001Z,-9.39
2023-02-18T09:58:55.165Z,-9.44
2023-02-18T10:02:02.331Z,-9.47
2023-02-18T10:05:08.732Z,-9.49
2023-02-18T10:08:28.148Z,-9.46
2023-02-18T10:11:43.797Z,-9.47
2023-02-18T10:15:16.268Z,-9.49
2023-02-18T10:18:27.664Z,-9.53
2023-02-18T10:21:37.513Z,-9.59
2023-02-18T10:24:47.959Z,-9.60
2023-02-18T10:27:55.342Z,-9.61
2023-02-18T10:31:04.062Z,-9.63
2023-02-18T10:34:14.431Z,-9.67
2023-02-18T10:37:43.547Z,-9.75
2023-02-18T10:41:20.361Z,-9.80
2023-02-18T10:44:32.781Z,-9.81
2023-02-18T10:48:13.131Z,-9.84
2023-02-18T10:51:24.730Z,-9.91
2023-02-18T10:55:01.728Z,-9.97
2023-02-18T10:58:27.168Z,-9.98
2023-02-18T11:01:35.791Z,-10.01
2023-02-18T11:04:45.488Z,-10.05
2023-02-18T11:07:54.388Z,-10.09
2023-02-18T11:11:00.694Z,-10.11
2023-02-18T11:14:09.808Z,-10.12
2023-02-18T11:17:25.084Z,-10.08
2023-02-18T11:20:37.143Z,-10.12
2023-02-18T11:24:10.118Z,-10.09
2023-02-18T11:27:27.314Z,-10.09
2023-02-18T11:30:35.633Z,-10.12
2023-02-18T11:33:45.675Z,-10.11
2023-02-18T11:36:51.749Z,-10.12
2023-02-18T11:39:57.453Z,-10.12
2023-02-18T11:43:14.096Z,-10.15
2023-02-18T11:46:22.210Z,-10.21
2023-02-18T11:49:26.583Z,-10.18
2023-02-18T11:52:36.918Z,-10.19
2023-02-18T11:56:00.725Z,-10.22
2023-02-18T11:59:05.853Z,-10.18
2023-02-18T12:02:13.506Z,-10.14
2023-02-18T12:05:28.338Z,-10.08
2023-02-18T12:08:41.589Z,-10.09
2023-02-18T12:11:50.101Z,-10.09
2023-02-18T12:14:56.233Z,-10.09
2023-02-18T12:18:22.755Z,-10.12
2023-02-18T12:21:55.571Z,-10.12
2023-02-18T12:25:07.486Z,-10.14
2023-02-18T12:29:15.049Z,-10.18
2023-02-18T12:32:45.381Z,-10.30
2023-02-18T12:36:03.379Z,-10.42
2023-02-18T12:39:16.298Z,-10.52
2023-02-18T12:42:46.193Z,-10.52
2023-02-18T12:46:17.634Z,-10.63
2023-02-18T12:49:28.345Z,-10.68
2023-02-18T12:52:57.386Z,-10.68
2023-02-18T12:56:04.025Z,-10.58
2023-02-18T12:59:17.229Z,-10.49
2023-02-18T13:02:37.907Z,-10.39
2023-02-18T13:05:40.936Z,-10.30
2023-02-18T13:09:05.391Z,-10.42
2023-02-18T13:12:14.911Z,-10.43
2023-02-18T13:15:22.065Z,-10.47
2023-02-18T13:18:40.882Z,-10.50
2023-02-18T13:21:48.376Z,-10.60
2023-02-18T13:24:58.056Z,-10.71
2023-02-18T13:28:23.135Z,-10.77
2023-02-18T13:31:44.615Z,-10.87
2023-02-18T13:34:59.993Z,-11.02
2023-02-18T13:38:28.524Z,-11.11
2023-02-18T13:41:38.566Z,-11.16
2023-02-18T13:44:58.631Z,-11.21
2023-02-18T13:48:32.089Z,-11.25
2023-02-18T13:51:43.961Z,-11.32
2023-02-18T13:54:51.526Z,-11.36
2023-02-18T13:57:57.250Z,-11.42
2023-02-18T14:01:06.569Z,-11.52
2023-02-18T14:04:45.445Z,-11.53
2023-02-18T14:07:54.947Z,-11.59
2023-02-18T14:11:13.565Z,-11.64
2023-02-18T14:14:35.700Z,-11.66
2023-02-18T14:17:44.497Z,-11.73
2023-02-18T14:20:52.853Z,-11.78
2023-02-18T14:23:58.833Z,-11.77
2023-02-18T14:27:16.128Z,-11.82
2023-02-18T14:30:37.204Z,-11.88
2023-02-18T14:33:44.842Z,-11.98
2023-02-18T14:37:17.741Z,-12.03
2023-02-18T14:40:59.976Z,-12.09
2023-02-18T14:44:15.754Z,-12.12
2023-02-18T14:47:29.870Z,-12.22
2023-02-18T14:50:37.190Z,-12.29
2023-02-18T14:53:47.452Z,-12.32
2023-02-18T14:56:57.794Z,-12.35
2023-02-18T15:00:02.166Z,-12.37
2023-02-18T15:03:22.232Z,-12.35
2023-02-18T15:06:31.903Z,-12.40
2023-02-18T15:09:35.424Z,-12.37
2023-02-18T15:12:39.309Z,-12.43
2023-02-18T15:15:45.258Z,-12.50
2023-02-18T15:19:06.839Z,-12.56
2023-02-18T15:22:19.304Z,-12.66
2023-02-18T15:25:22.877Z,-12.75
2023-02-18T15:28:36.250Z,-12.71
2023-02-18T15:31:40.631Z,-12.74
2023-02-18T15:34:46.901Z,-12.75
2023-02-18T15:41:24.286Z,-12.75
2023-02-18T15:44:31.007Z,-12.81
2023-02-18T15:47:35.118Z,-12.84
2023-02-18T15:50:50.510Z,-12.91
2023-02-18T15:54:00.140Z,-12.85
2023-02-18T15:57:05.268Z,-12.88
2023-02-18T16:00:22.828Z,-12.96
2023-02-18T16:03:28.833Z,-12.98
2023-02-18T16:06:39.268Z,-12.99
2023-02-18T16:09:43.379Z,-12.95
2023-02-18T16:12:51.168Z,-12.91
2023-02-18T16:15:55.067Z,-12.95
2023-02-18T16:18:59.514Z,-13.01
2023-02-18T16:22:07.364Z,-12.96
2023-02-18T16:25:25.042Z,-12.96
2023-02-18T16:28:34.574Z,-12.92
2023-02-18T16:31:39.573Z,-12.92
2023-02-18T16:34:43.840Z,-12.91
2023-02-18T16:37:51.263Z,-12.88
2023-02-18T16:40:56.174Z,-12.85
2023-02-18T16:43:59.849Z,-12.80
2023-02-18T16:47:04.113Z,-12.81
2023-02-18T16:50:16.009Z,-12.81
2023-02-18T16:53:21.765Z,-12.83
2023-02-18T16:56:28.912Z,-12.88
2023-02-18T16:59:33.960Z,-12.89
2023-02-18T17:02:39.650Z,-12.89
2023-02-18T17:05:45.629Z,-12.84
2023-02-18T17:08:52.030Z,-12.71
2023-02-18T17:11:58.398Z,-12.71
2023-02-18T17:15:02.667Z,-12.75
2023-02-18T17:18:06.553Z,-12.74
2023-02-18T17:21:15.405Z,-12.73
2023-02-18T17:24:21.060Z,-12.75
2023-02-18T17:27:26.196Z,-12.77
2023-02-18T17:30:34.040Z,-12.80
2023-02-18T17:33:39.861Z,-12.81
2023-02-18T17:36:47.896Z,-12.87
2023-02-18T17:39:52.432Z,-12.87
2023-02-18T17:42:57.609Z,-12.84
2023-02-18T17:46:02.393Z,-12.92
2023-02-18T17:49:05.678Z,-12.94
2023-02-18T17:52:24.270Z,-12.98
2023-02-18T17:55:39.195Z,-12.99
2023-02-18T17:58:43.263Z,-13.11
2023-02-18T18:01:47.197Z,-13.22
2023-02-18T18:04:52.011Z,-13.22
2023-02-18T18:07:56.071Z,-13.30
2023-02-18T18:11:02.226Z,-13.32
2023-02-18T18:14:05.894Z,-13.37
2023-02-18T18:17:13.593Z,-13.39
2023-02-18T18:20:17.125Z,-13.48
2023-02-18T18:23:22.584Z,-13.55
2023-02-18T18:26:26.728Z,-13.58
2023-02-18T18:29:32.403Z,-13.64
2023-02-18T18:32:37.289Z,-13.74
2023-02-18T18:35:42.402Z,-13.83
2023-02-18T18:38:48.202Z,-13.88
2023-02-18T18:41:52.501Z,-13.93
2023-02-18T18:44:56.603Z,-13.99
2023-02-18T18:48:02.093Z,-14.01
2023-02-18T18:51:06.115Z,-14.02
2023-02-18T18:54:12.612Z,-14.05
2023-02-18T18:57:16.513Z,-14.16
2023-02-18T19:00:23.842Z,-14.33
2023-02-18T19:03:29.671Z,-14.47
2023-02-18T19:06:33.784Z,-14.50
2023-02-18T19:09:37.885Z,-14.58
2023-02-18T19:12:41.420Z,-14.58
2023-02-18T19:15:44.847Z,-14.61
2023-02-18T19:18:48.456Z,-14.54
2023-02-18T19:21:53.732Z,-14.41
2023-02-18T19:24:56.885Z,-14.33
2023-02-18T19:28:00.401Z,-14.36
2023-02-18T19:31:08.307Z,-14.46
2023-02-18T19:34:11.859Z,-14.56
2023-02-18T19:37:15.696Z,-14.63
2023-02-18T19:40:25.448Z,-14.68
2023-02-18T19:43:29.671Z,-14.79
2023-02-18T19:46:33.132Z,-14.78
2023-02-18T19:49:36.422Z,-14.75
2023-02-18T19:52:40.401Z,-14.78
2023-02-18T19:55:44.300Z,-14.86
2023-02-18T19:58:47.593Z,-14.86
2023-02-18T20:01:50.810Z,-14.86
2023-02-18T20:04:58.810Z,-14.95
2023-02-18T20:08:04.660Z,-14.96
2023-02-18T20:11:09.243Z,-14.88
2023-02-18T20:14:13.535Z,-14.92
2023-02-18T20:17:17.021Z,-14.93
2023-02-18T20:20:20.924Z,-14.98
2023-02-18T20:23:24.354Z,-14.92
2023-02-18T20:26:27.687Z,-14.96
2023-02-18T20:29:34.156Z,-15.00
2023-02-18T20:32:38.008Z,-15.00
2023-02-18T20:35:41.404Z,-14.98
2023-02-18T20:38:44.995Z,-14.99
2023-02-18T20:41:49.457Z,-15.09
2023-02-18T20:44:53.003Z,-15.12
2023-02-18T20:47:56.869Z,-15.19
2023-02-18T20:51:14.809Z,-15.23
2023-02-18T20:54:20.305Z,-15.28
2023-02-18T20:57:23.669Z,-15.28
2023-02-18T21:00:27.475Z,-15.33
2023-02-18T21:03:31.212Z,-15.31
2023-02-18T21:06:34.821Z,-15.24
2023-02-18T21:09:38.089Z,-15.22
2023-02-18T21:12:41.248Z,-15.20
2023-02-18T21:15:44.362Z,-15.17
2023-02-18T21:18:47.902Z,-15.17
2023-02-18T21:21:51.178Z,-15.13
2023-02-18T21:24:54.614Z,-15.15
2023-02-18T21:27:58.502Z,-15.09
2023-02-18T21:31:02.754Z,-15.09
2023-02-18T21:34:08.342Z,-15.06
2023-02-18T21:37:12.267Z,-15.05
2023-02-18T21:40:15.722Z,-15.03
2023-02-18T21:43:19.971Z,-15.02
2023-02-18T21:46:28.840Z,-15.03
2023-02-18T21:49:32.156Z,-15.02
2023-02-18T21:52:36.313Z,-15.02
2023-02-18T21:55:39.922Z,-15.00
2023-02-18T21:58:44.776Z,-15.02
2023-02-18T22:01:49.934Z,-15.00
2023-02-18T22:04:53.813Z,-15.03
2023-02-18T22:07:57.730Z,-15.05
2023-02-18T22:11:00.857Z,-15.07
2023-02-18T22:14:05.730Z,-15.03
2023-02-18T22:17:12.427Z,-15.06
2023-02-18T22:20:20.858Z,-15.07
2023-02-18T22:23:28.936Z,-15.12
2023-02-18T22:26:36.961Z,-15.16
2023-02-18T22:29:42.699Z,-15.13
2023-02-18T22:32:47.844Z,-15.16
2023-02-18T22:35:53.490Z,-15.17
2023-02-18T22:38:59.763Z,-15.16
2023-02-18T22:42:06.461Z,-15.19
2023-02-18T22:45:12.906Z,-15.23
2023-02-18T22:48:22.253Z,-15.20
2023-02-18T22:51:32.915Z,-15.27
2023-02-18T22:54:39.894Z,-15.27
2023-02-18T22:57:45.665Z,-15.28
2023-02-18T23:00:51.755Z,-15.30
2023-02-18T23:03:58.823Z,-15.38
2023-02-18T23:07:06.137Z,-15.43
2023-02-18T23:10:13.900Z,-15.48
2023-02-18T23:13:18.728Z,-15.50
2023-02-18T23:16:23.192Z,-15.50
2023-02-18T23:19:29.007Z,-15.48
2023-02-18T23:22:34.428Z,-15.47
2023-02-18T23:25:38.674Z,-15.50
2023-02-18T23:28:48.393Z,-15.47
2023-02-18T23:31:52.423Z,-15.48
2023-02-18T23:34:56.029Z,-15.45
2023-02-18T23:38:06.398Z,-15.43
2023-02-18T23:41:10.249Z,-15.40
2023-02-18T23:44:18.335Z,-15.38
2023-02-18T23:47:22.899Z,-15.33
2023-02-18T23:50:27.988Z,-15.24
2023-02-18T23:53:34.062Z,-15.16
2023-02-18T23:56:38.895Z,-15.10
2023-02-18T23:59:42.635Z,-15.09
